createdAt,value
2023-01-23T00:01:34.208Z,5.78
2023-01-23T00:04:02.579Z,5.47
2023-01-23T00:06:30.602Z,5.57
2023-01-23T00:08:58.200Z,5.62
2023-01-23T00:11:28.425Z,5.73
2023-01-23T00:13:56.986Z,5.54
2023-01-23T00:16:26.433Z,5.37
2023-01-23T00:18:54.163Z,5.71
2023-01-23T00:21:24.156Z,5.77
2023-01-23T00:23:53.734Z,5.86
2023-01-23T00:26:24.143Z,5.84
2023-01-23T00:28:52.235Z,5.70
2023-01-23T00:31:25.511Z,5.81
2023-01-23T00:34:13.075Z,5.90
2023-01-23T00:36:43.525Z,5.98
2023-01-23T00:39:19.728Z,5.93
2023-01-23T00:41:48.047Z,6.08
2023-01-23T00:44:16.547Z,5.99
2023-01-23T00:46:44.123Z,5.95
2023-01-23T00:49:11.596Z,6.09
2023-01-23T00:51:39.284Z,6.18
2023-01-23T00:54:06.733Z,5.98
2023-01-23T00:56:34.217Z,6.05
2023-01-23T00:59:01.906Z,6.04
2023-01-23T01:01:31.921Z,5.95
2023-01-23T01:03:59.985Z,5.98
2023-01-23T01:06:29.679Z,6.00
2023-01-23T01:08:57.987Z,5.96
2023-01-23T01:11:25.718Z,6.09
2023-01-23T01:13:53.752Z,6.15
2023-01-23T01:16:21.482Z,6.06
2023-01-23T01:18:48.910Z,6.12
2023-01-23T01:21:16.783Z,6.07
2023-01-23T01:23:44.378Z,6.09
2023-01-23T01:26:11.938Z,5.96
2023-01-23T01:28:40.687Z,6.02
2023-01-23T01:31:13.483Z,6.12
2023-01-23T01:33:42.225Z,6.20
2023-01-23T01:36:11.477Z,6.18
2023-01-23T01:38:39.292Z,6.17
2023-01-23T01:41:07.597Z,6.24
2023-01-23T01:43:36.110Z,6.32
2023-01-23T01:46:06.231Z,6.35
2023-01-23T01:49:15.297Z,6.45
2023-01-23T01:51:45.777Z,6.36
2023-01-23T01:54:33.411Z,6.52
2023-01-23T01:57:05.843Z,6.62
2023-01-23T01:59:38.803Z,6.34
2023-01-23T02:02:12.637Z,6.45
2023-01-23T02:04:47.799Z,6.46
2023-01-23T02:07:22.158Z,6.42
2023-01-23T02:09:50.187Z,6.43
2023-01-23T02:12:17.576Z,6.46
2023-01-23T02:14:45.367Z,6.52
2023-01-23T02:17:12.742Z,6.33
2023-01-23T02:19:45.967Z,6.49
2023-01-23T02:22:29.318Z,6.40
2023-01-23T02:25:02.857Z,6.46
2023-01-23T02:27:30.751Z,6.41
2023-01-23T02:29:58.529Z,6.39
2023-01-23T02:32:26.908Z,6.54
2023-01-23T02:34:57.459Z,6.55
2023-01-23T02:37:28.020Z,6.43
2023-01-23T02:39:58.771Z,6.61
2023-01-23T02:42:26.382Z,6.48
2023-01-23T02:44:55.840Z,6.35
2023-01-23T02:47:23.683Z,6.50
2023-01-23T02:49:51.045Z,6.39
2023-01-23T02:52:18.446Z,6.49
2023-01-23T02:54:47.488Z,6.53
2023-01-23T02:57:15.480Z,6.54
2023-01-23T03:00:01.295Z,6.60
2023-01-23T03:02:29.532Z,6.62
2023-01-23T03:04:57.032Z,6.66
2023-01-23T03:07:24.396Z,6.67
2023-01-23T03:09:52.059Z,6.60
2023-01-23T03:12:19.449Z,6.69
2023-01-23T03:14:48.500Z,6.71
2023-01-23T03:17:16.176Z,7.01
2023-01-23T03:19:43.612Z,6.87
2023-01-23T03:22:11.049Z,6.77
2023-01-23T03:24:39.650Z,6.88
2023-01-23T03:27:07.225Z,6.80
2023-01-23T03:29:53.741Z,6.79
2023-01-23T03:32:22.534Z,6.91
2023-01-23T03:34:49.970Z,6.96
2023-01-23T03:37:19.707Z,6.88
2023-01-23T03:40:06.248Z,6.90
2023-01-23T03:42:34.731Z,7.02
2023-01-23T03:45:03.497Z,6.90
2023-01-23T03:47:31.228Z,7.04
2023-01-23T03:49:58.645Z,7.06
2023-01-23T03:52:26.356Z,7.11
2023-01-23T03:54:53.924Z,7.15
2023-01-23T03:57:21.328Z,7.10
2023-01-23T03:59:51.052Z,7.12
2023-01-23T04:02:18.997Z,7.28
2023-01-23T04:04:46.792Z,7.25
2023-01-23T04:07:14.228Z,7.10
2023-01-23T04:09:42.034Z,7.40
2023-01-23T04:12:09.794Z,7.29
2023-01-23T04:14:37.887Z,7.42
2023-01-23T04:17:06.490Z,7.35
2023-01-23T04:19:34.545Z,7.27
2023-01-23T04:22:02.469Z,7.36
2023-01-23T04:24:31.670Z,7.33
2023-01-23T04:27:00.419Z,7.55
2023-01-23T04:29:28.588Z,7.37
2023-01-23T04:31:56.171Z,7.44
2023-01-23T04:34:23.845Z,7.31
2023-01-23T04:36:51.464Z,7.41
2023-01-23T04:39:18.868Z,7.45
2023-01-23T04:41:46.795Z,7.51
2023-01-23T04:44:20.737Z,7.50
2023-01-23T04:46:50.925Z,7.63
2023-01-23T04:49:19.438Z,7.36
2023-01-23T04:51:48.276Z,7.47
2023-01-23T04:54:18.083Z,7.62
2023-01-23T04:56:46.078Z,7.80
2023-01-23T04:59:15.790Z,7.82
2023-01-23T05:01:44.461Z,7.94
2023-01-23T05:04:12.174Z,8.12
2023-01-23T05:06:39.848Z,8.12
2023-01-23T05:09:07.518Z,8.23
2023-01-23T05:11:35.534Z,8.36
2023-01-23T05:14:03.056Z,8.49
2023-01-23T05:16:30.807Z,8.59
2023-01-23T05:18:59.941Z,8.56
2023-01-23T05:21:27.720Z,8.56
2023-01-23T05:23:55.367Z,8.58
2023-01-23T05:26:22.906Z,8.63
2023-01-23T05:28:50.966Z,8.82
2023-01-23T05:31:20.633Z,8.69
2023-01-23T05:33:49.700Z,8.85
2023-01-23T05:36:18.570Z,8.84
2023-01-23T05:38:46.545Z,8.90
2023-01-23T05:41:14.151Z,9.00
2023-01-23T05:43:44.245Z,9.05
2023-01-23T05:46:16.961Z,9.29
2023-01-23T05:48:48.818Z,9.07
2023-01-23T05:51:17.313Z,8.98
2023-01-23T05:53:45.126Z,9.01
2023-01-23T05:56:13.001Z,8.95
2023-01-23T05:58:41.233Z,8.98
2023-01-23T06:01:09.620Z,9.06
2023-01-23T06:03:39.076Z,8.90
2023-01-23T06:06:06.874Z,9.00
2023-01-23T06:08:34.263Z,9.20
2023-01-23T06:11:03.719Z,9.01
2023-01-23T06:13:31.349Z,9.17
2023-01-23T06:15:59.132Z,9.21
2023-01-23T06:18:27.039Z,9.11
2023-01-23T06:20:59.247Z,9.23
2023-01-23T06:23:27.156Z,9.30
2023-01-23T06:25:54.575Z,9.26
2023-01-23T06:28:22.053Z,9.44
2023-01-23T06:30:49.869Z,9.43
2023-01-23T06:33:18.923Z,9.39
2023-01-23T06:35:46.588Z,9.66
2023-01-23T06:38:14.332Z,9.57
2023-01-23T06:40:42.271Z,9.58
2023-01-23T06:43:10.055Z,9.50
2023-01-23T06:45:37.714Z,9.42
2023-01-23T06:48:05.440Z,9.29
2023-01-23T06:50:33.033Z,9.41
2023-01-23T06:53:00.795Z,9.49
2023-01-23T06:55:28.322Z,9.46
2023-01-23T06:57:55.721Z,9.39
2023-01-23T07:00:23.556Z,9.45
2023-01-23T07:02:53.091Z,9.39
2023-01-23T07:05:20.524Z,9.49
2023-01-23T07:07:48.287Z,9.31
2023-01-23T07:10:15.873Z,9.26
2023-01-23T07:12:43.255Z,9.46
2023-01-23T07:15:11.323Z,9.24
2023-01-23T07:17:39.025Z,9.34
2023-01-23T07:20:07.038Z,9.69
2023-01-23T07:22:37.388Z,9.92
2023-01-23T07:25:05.474Z,10.28
2023-01-23T07:27:33.186Z,10.36
2023-01-23T07:30:00.811Z,10.22
2023-01-23T07:32:28.161Z,10.11
2023-01-23T07:34:55.816Z,10.01
2023-01-23T07:37:25.054Z,10.17
2023-01-23T07:39:52.504Z,10.30
2023-01-23T07:42:19.899Z,10.22
2023-01-23T07:44:47.526Z,10.06
2023-01-23T07:47:14.922Z,10.21
2023-01-23T07:49:42.266Z,10.29
2023-01-23T07:52:10.132Z,10.29
2023-01-23T07:54:37.605Z,10.13
2023-01-23T07:57:05.015Z,10.19
2023-01-23T07:59:32.797Z,10.26
2023-01-23T08:02:00.159Z,10.44
2023-01-23T08:04:28.026Z,10.41
2023-01-23T08:06:55.450Z,10.50
2023-01-23T08:09:22.901Z,10.53
2023-01-23T08:11:52.391Z,10.99
2023-01-23T08:14:20.035Z,11.13
2023-01-23T08:16:50.960Z,10.81
2023-01-23T08:19:19.549Z,10.96
2023-01-23T08:21:47.309Z,11.01
2023-01-23T08:24:14.935Z,10.96
2023-01-23T08:26:42.957Z,11.13
2023-01-23T08:29:11.106Z,11.02
2023-01-23T08:31:39.362Z,10.94
2023-01-23T08:34:07.047Z,10.90
2023-01-23T08:36:34.409Z,10.84
2023-01-23T08:39:01.796Z,10.65
2023-01-23T08:41:29.511Z,10.70
2023-01-23T08:44:01.564Z,10.55
2023-01-23T08:46:29.241Z,10.53
2023-01-23T08:48:56.559Z,10.62
2023-01-23T08:51:24.073Z,10.61
2023-01-23T08:53:53.017Z,10.61
2023-01-23T08:56:22.248Z,10.65
2023-01-23T08:58:50.293Z,10.58
2023-01-23T09:01:20.829Z,10.69
2023-01-23T09:03:48.551Z,10.36
2023-01-23T09:06:18.495Z,10.61
2023-01-23T09:08:46.631Z,10.65
2023-01-23T09:11:14.312Z,10.76
2023-01-23T09:13:41.736Z,10.74
2023-01-23T09:16:09.641Z,10.71
2023-01-23T09:18:37.152Z,10.62
2023-01-23T09:21:11.952Z,10.72
2023-01-23T09:23:40.044Z,10.86
2023-01-23T09:26:09.396Z,10.89
2023-01-23T09:28:38.837Z,10.96
2023-01-23T09:31:07.994Z,11.29
2023-01-23T09:33:35.966Z,11.14
2023-01-23T09:36:04.679Z,11.46
2023-01-23T09:38:34.047Z,11.48
2023-01-23T09:41:11.898Z,11.69
2023-01-23T09:43:54.762Z,11.74
2023-01-23T09:46:26.404Z,11.77
2023-01-23T09:48:59.469Z,12.04
2023-01-23T09:52:24.574Z,11.98
2023-01-23T09:54:59.690Z,12.18
2023-01-23T09:57:52.927Z,11.97
2023-01-23T10:00:27.686Z,11.97
2023-01-23T10:02:56.825Z,11.99
2023-01-23T10:06:01.343Z,12.15
2023-01-23T10:08:34.971Z,12.03
2023-01-23T10:11:07.392Z,12.22
2023-01-23T10:13:34.931Z,12.26
2023-01-23T10:16:49.861Z,12.28
2023-01-23T10:19:31.687Z,12.12
2023-01-23T10:22:26.064Z,12.02
2023-01-23T10:24:57.553Z,12.48
2023-01-23T10:27:32.696Z,12.31
2023-01-23T10:30:07.782Z,12.41
2023-01-23T10:32:49.472Z,12.39
2023-01-23T10:35:25.858Z,12.47
2023-01-23T10:38:11.203Z,12.29
2023-01-23T10:40:57.599Z,12.14
2023-01-23T10:43:29.095Z,12.38
2023-01-23T10:45:56.847Z,12.45
2023-01-23T10:48:28.713Z,12.58
2023-01-23T10:50:56.211Z,12.55
2023-01-23T10:53:25.213Z,12.29
2023-01-23T10:55:58.630Z,12.31
2023-01-23T10:58:37.929Z,12.13
2023-01-23T11:01:06.951Z,12.10
2023-01-23T11:03:35.671Z,12.19
2023-01-23T11:06:08.427Z,12.08
2023-01-23T11:08:38.696Z,12.16
2023-01-23T11:11:15.472Z,12.29
2023-01-23T11:13:44.431Z,12.37
2023-01-23T11:16:17.139Z,12.14
2023-01-23T11:18:56.799Z,12.36
2023-01-23T11:21:29.040Z,12.37
2023-01-23T11:24:39.866Z,12.16
2023-01-23T11:27:19.166Z,12.35
2023-01-23T11:29:46.825Z,12.36
2023-01-23T11:32:16.229Z,12.46
2023-01-23T11:34:49.781Z,12.46
2023-01-23T11:37:17.279Z,12.49
2023-01-23T11:39:57.836Z,12.51
2023-01-23T11:42:28.631Z,12.58
2023-01-23T11:44:59.459Z,12.73
2023-01-23T11:47:36.577Z,12.83
2023-01-23T11:50:13.174Z,12.82
2023-01-23T11:52:47.083Z,12.93
2023-01-23T11:55:34.714Z,12.70
2023-01-23T11:58:21.405Z,12.59
2023-01-23T12:00:54.954Z,12.84
2023-01-23T12:03:57.069Z,12.83
2023-01-23T12:06:43.216Z,13.09
2023-01-23T12:09:18.289Z,12.74
2023-01-23T12:12:10.249Z,12.91
2023-01-23T12:15:01.728Z,12.87
2023-01-23T12:17:33.425Z,12.93
2023-01-23T12:20:16.509Z,12.93
2023-01-23T12:22:52.964Z,12.95
2023-01-23T12:25:29.454Z,12.85
2023-01-23T12:28:17.289Z,12.86
2023-01-23T12:30:51.971Z,12.93
2023-01-23T12:33:48.557Z,12.93
2023-01-23T12:36:40.354Z,12.96
2023-01-23T12:39:55.069Z,12.90
2023-01-23T12:42:31.056Z,12.71
2023-01-23T12:45:12.311Z,12.47
2023-01-23T12:47:50.340Z,12.71
2023-01-23T12:50:21.758Z,12.89
2023-01-23T12:53:01.650Z,12.69
2023-01-23T12:55:35.960Z,12.76
2023-01-23T12:58:09.383Z,12.89
2023-01-23T13:00:49.391Z,12.74
2023-01-23T13:03:44.798Z,12.80
2023-01-23T13:06:51.746Z,12.88
2023-01-23T13:09:22.182Z,12.87
2023-01-23T13:11:52.639Z,13.02
2023-01-23T13:15:06.511Z,13.01
2023-01-23T13:17:49.679Z,13.10
2023-01-23T13:20:39.070Z,13.16
2023-01-23T13:23:19.541Z,12.91
2023-01-23T13:25:47.517Z,12.98
2023-01-23T13:28:43.941Z,12.96
2023-01-23T13:31:26.834Z,13.10
2023-01-23T13:33:58.781Z,12.93
2023-01-23T13:36:33.817Z,13.02
2023-01-23T13:39:04.116Z,13.16
2023-01-23T13:41:33.834Z,13.05
2023-01-23T13:44:04.424Z,13.24
2023-01-23T14:21:52.295Z,12.92
2023-01-23T14:24:42.616Z,12.93
2023-01-23T14:27:29.522Z,12.76
2023-01-23T14:30:13.952Z,12.67
2023-01-23T14:32:41.983Z,12.71
2023-01-23T14:35:21.019Z,12.52
2023-01-23T14:37:49.458Z,12.59
2023-01-23T14:40:25.896Z,12.55
2023-01-23T14:43:02.232Z,12.55
2023-01-23T14:45:33.061Z,12.63
2023-01-23T14:48:08.494Z,12.48
2023-01-23T14:50:36.208Z,12.74
2023-01-23T14:53:07.045Z,12.50
2023-01-23T14:55:36.827Z,12.51
2023-01-23T14:58:04.872Z,12.52
2023-01-23T15:00:32.515Z,12.56
2023-01-23T15:03:00.086Z,12.53
2023-01-23T15:05:28.337Z,12.54
2023-01-23T15:08:03.142Z,12.38
2023-01-23T15:10:35.741Z,12.38
2023-01-23T15:13:06.459Z,12.52
2023-01-23T15:15:34.783Z,12.67
2023-01-23T15:18:05.757Z,12.59
2023-01-23T15:20:40.729Z,12.56
2023-01-23T15:23:33.739Z,12.48
2023-01-23T15:26:19.600Z,12.56
2023-01-23T15:29:00.251Z,12.51
2023-01-23T15:31:40.393Z,12.47
2023-01-23T15:34:19.622Z,12.37
2023-01-23T15:37:22.533Z,12.36
2023-01-23T15:40:02.635Z,12.39
2023-01-23T15:42:33.450Z,12.52
2023-01-23T15:45:02.329Z,12.44
2023-01-23T15:47:31.870Z,12.59
2023-01-23T15:50:01.661Z,12.57
2023-01-23T15:52:31.703Z,12.61
2023-01-23T15:55:01.646Z,12.60
2023-01-23T15:57:29.315Z,12.71
2023-01-23T15:59:56.714Z,12.77
2023-01-23T16:02:31.127Z,12.80
2023-01-23T16:05:01.665Z,12.93
2023-01-23T16:07:37.511Z,13.04
2023-01-23T16:10:25.379Z,12.76
2023-01-23T16:12:54.682Z,12.97
2023-01-23T16:15:27.851Z,12.69
2023-01-23T16:17:56.013Z,12.72
2023-01-23T16:20:27.621Z,12.80
2023-01-23T16:22:59.305Z,12.81
2023-01-23T16:25:44.027Z,12.74
2023-01-23T16:28:17.560Z,12.99
2023-01-23T16:30:46.291Z,12.93
2023-01-23T16:33:13.831Z,12.88
2023-01-23T16:35:41.774Z,12.91
2023-01-23T16:38:21.407Z,13.06
2023-01-23T16:40:51.517Z,13.07
2023-01-23T16:43:19.836Z,12.98
2023-01-23T16:45:47.250Z,12.98
2023-01-23T16:48:25.342Z,12.78
2023-01-23T16:51:08.071Z,12.78
2023-01-23T16:53:37.256Z,12.88
2023-01-23T16:56:06.442Z,12.80
2023-01-23T16:58:39.264Z,12.76
2023-01-23T17:01:16.542Z,12.67
2023-01-23T17:03:44.527Z,12.79
2023-01-23T17:06:14.080Z,12.83
2023-01-23T17:08:41.757Z,12.72
2023-01-23T17:11:17.718Z,12.78
2023-01-23T17:13:45.625Z,12.74
2023-01-23T17:16:26.501Z,12.80
2023-01-23T17:18:57.787Z,12.76
2023-01-23T17:21:29.796Z,12.84
2023-01-23T17:23:57.654Z,12.87
2023-01-23T17:26:25.108Z,12.87
2023-01-23T17:28:52.637Z,13.00
2023-01-23T17:31:25.935Z,12.87
2023-01-23T17:33:55.344Z,13.01
2023-01-23T17:36:25.097Z,12.93
2023-01-23T17:38:56.261Z,12.98
2023-01-23T17:41:23.913Z,13.05
2023-01-23T17:43:52.624Z,12.89
2023-01-23T17:46:22.954Z,12.87
2023-01-23T17:48:50.708Z,12.89
2023-01-23T17:51:19.907Z,12.88
2023-01-23T17:53:47.890Z,12.90
2023-01-23T17:56:16.167Z,12.93
2023-01-23T17:58:43.971Z,12.96
2023-01-23T18:01:18.704Z,13.08
2023-01-23T18:03:46.554Z,13.04
2023-01-23T18:06:13.988Z,12.89
2023-01-23T18:08:42.409Z,12.86
2023-01-23T18:11:18.878Z,12.89
2023-01-23T18:13:53.599Z,12.87
2023-01-23T18:16:25.592Z,12.82
2023-01-23T18:19:01.274Z,12.60
2023-01-23T18:21:29.157Z,12.56
2023-01-23T18:23:57.326Z,12.39
2023-01-23T18:26:48.073Z,12.58
2023-01-23T18:29:30.221Z,12.55
2023-01-23T18:32:28.996Z,12.40
2023-01-23T18:35:24.676Z,12.38
2023-01-23T18:37:58.121Z,12.17
2023-01-23T18:41:01.126Z,12.41
2023-01-23T18:43:35.841Z,12.24
2023-01-23T18:46:03.753Z,12.16
2023-01-23T18:48:31.671Z,12.20
2023-01-23T18:51:08.426Z,12.22
2023-01-23T18:54:02.241Z,12.14
2023-01-23T18:56:50.796Z,12.28
2023-01-23T18:59:45.769Z,12.12
2023-01-23T19:02:23.701Z,12.17
2023-01-23T19:05:10.191Z,12.00
2023-01-23T19:07:38.279Z,11.93
2023-01-23T19:10:07.863Z,12.13
2023-01-23T19:12:50.071Z,12.02
2023-01-23T19:15:50.319Z,11.82
2023-01-23T19:18:39.428Z,11.77
2023-01-23T19:21:17.172Z,11.82
2023-01-23T19:23:55.804Z,11.73
2023-01-23T19:26:25.376Z,11.73
2023-01-23T19:28:53.153Z,11.66
2023-01-23T19:31:28.919Z,11.46
2023-01-23T19:33:57.487Z,11.39
2023-01-23T19:36:25.767Z,11.45
2023-01-23T19:39:00.372Z,11.44
2023-01-23T19:41:53.398Z,11.40
2023-01-23T19:44:24.140Z,11.32
2023-01-23T19:46:52.433Z,11.13
2023-01-23T19:49:20.102Z,11.01
2023-01-23T19:51:47.980Z,11.16
2023-01-23T19:54:16.014Z,10.98
2023-01-23T19:56:43.494Z,10.87
2023-01-23T19:59:11.507Z,11.00
2023-01-23T20:01:43.503Z,10.99
2023-01-23T20:04:16.905Z,11.02
2023-01-23T20:06:58.337Z,10.86
2023-01-23T20:09:26.405Z,10.94
2023-01-23T20:11:54.181Z,10.93
2023-01-23T20:14:23.541Z,10.93
2023-01-23T20:16:51.413Z,10.79
2023-01-23T20:19:19.659Z,10.84
2023-01-23T20:21:48.761Z,10.72
2023-01-23T20:24:16.799Z,10.67
2023-01-23T20:26:44.707Z,10.71
2023-01-23T20:29:12.211Z,10.67
2023-01-23T20:31:42.676Z,10.69
2023-01-23T20:34:12.838Z,10.60
2023-01-23T20:36:45.029Z,10.35
2023-01-23T20:39:13.740Z,10.50
2023-01-23T20:41:41.132Z,10.56
2023-01-23T20:44:08.650Z,10.38
2023-01-23T20:46:36.417Z,10.39
2023-01-23T20:49:04.028Z,10.25
2023-01-23T20:51:31.488Z,10.22
2023-01-23T20:54:00.021Z,10.27
2023-01-23T20:56:28.089Z,10.31
2023-01-23T20:59:15.363Z,10.31
2023-01-23T21:02:03.324Z,10.31
2023-01-23T21:04:35.305Z,10.35
2023-01-23T21:07:04.033Z,10.20
2023-01-23T21:09:31.476Z,10.14
2023-01-23T21:11:59.324Z,10.13
2023-01-23T21:14:27.216Z,10.19
2023-01-23T21:16:54.643Z,10.22
2023-01-23T21:19:22.232Z,10.31
2023-01-23T21:21:50.305Z,10.42
2023-01-23T21:24:17.762Z,10.36
2023-01-23T21:26:45.135Z,10.45
2023-01-23T21:29:12.809Z,10.42
2023-01-23T21:31:40.751Z,10.60
2023-01-23T21:34:11.487Z,10.53
2023-01-23T21:36:40.614Z,10.69
2023-01-23T21:39:10.158Z,10.64
2023-01-23T21:41:37.887Z,10.79
2023-01-23T21:44:05.679Z,10.79
2023-01-23T21:46:33.155Z,10.75
2023-01-23T21:49:00.816Z,10.64
2023-01-23T21:51:28.481Z,10.70
2023-01-23T21:53:55.928Z,10.69
2023-01-23T21:56:24.134Z,10.61
2023-01-23T21:58:52.524Z,10.61
2023-01-23T22:01:33.733Z,10.59
2023-01-23T22:04:05.678Z,10.53
2023-01-23T22:06:33.921Z,10.37
2023-01-23T22:09:02.019Z,10.32
2023-01-23T22:11:29.532Z,10.44
2023-01-23T22:13:57.476Z,10.49
2023-01-23T22:16:35.945Z,10.44
2023-01-23T22:19:14.684Z,10.40
2023-01-23T22:21:43.662Z,10.30
2023-01-23T22:24:11.065Z,10.48
2023-01-23T22:26:38.463Z,10.63
2023-01-23T22:29:06.115Z,10.58
2023-01-23T22:31:33.568Z,10.65
2023-01-23T22:34:01.001Z,10.73
2023-01-23T22:36:28.765Z,10.61
2023-01-23T22:38:56.533Z,10.67
2023-01-23T22:41:24.064Z,10.68
2023-01-23T22:43:56.033Z,10.78
2023-01-23T22:46:23.939Z,10.72
2023-01-23T22:48:51.818Z,10.74
2023-01-23T22:51:25.048Z,10.79
2023-01-23T22:53:53.867Z,10.78
2023-01-23T22:56:22.001Z,10.79
2023-01-23T22:58:50.468Z,10.86
2023-01-23T23:01:19.280Z,10.95
2023-01-23T23:03:47.016Z,10.89
2023-01-23T23:06:15.817Z,10.95
2023-01-23T23:08:47.270Z,10.87
2023-01-23T23:11:33.231Z,10.90
2023-01-23T23:14:00.866Z,10.84
2023-01-23T23:16:30.984Z,10.86
2023-01-23T23:19:01.615Z,10.91
2023-01-23T23:21:32.811Z,10.84
2023-01-23T23:24:02.137Z,10.82
2023-01-23T23:26:31.366Z,10.79
2023-01-23T23:28:59.913Z,10.79
2023-01-23T23:31:27.573Z,10.92
2023-01-23T23:33:55.750Z,10.70
2023-01-23T23:36:23.498Z,10.70
2023-01-23T23:38:50.916Z,10.71
2023-01-23T23:41:18.939Z,10.55
2023-01-23T23:43:46.613Z,10.58
2023-01-23T23:46:15.083Z,10.48
2023-01-23T23:48:43.842Z,10.47
2023-01-23T23:51:13.391Z,10.38
2023-01-23T23:53:41.144Z,10.46
2023-01-23T23:56:09.979Z,10.34
2023-01-23T23:58:37.618Z,10.22
